Time;durP1;ratioP1;P1;durP2;ratioP2;P2;SDS_P1;SDS_P2;PMS_P1;PMS_P2;Temp;Humidity;BMP_temperature;BMP_pressure;BME280_temperature;BME280_humidity;BME280_pressure;Samples;Min_cycle;Max_cycle;Signal;HPM_P1;HPM_P2
2023/06/26 08:01:25;;;;;;;7.00;3.72;;;;;;;29.42;41.02;96540.44;2110312;27;20905;-62
2023/06/26 08:03:44;;;;;;;8.20;4.53;;;;;;;29.58;40.41;96549.28;2082677;27;20565;-61
2023/06/26 08:06:03;;;;;;;11.05;4.35;;;;;;;29.48;41.05;96550.44;2087313;28;20567;-62
2023/06/26 08:08:21;;;;;;;7.80;4.47;;;;;;;29.61;40.43;96546.19;2087116;27;20593;-62
2023/06/26 08:10:42;;;;;;;5.93;4.13;;;;;;;29.65;40.74;96544.81;2082699;28;20541;-61
2023/06/26 08:13:07;;;;;;;5.70;4.03;;;;;;;29.73;40.63;96544.66;2081234;28;20964;-62
2023/06/26 08:15:41;;;;;;;5.50;4.40;;;;;;;29.73;41.05;96555.41;2100551;27;21107;-62
2023/06/26 08:18:19;;;;;;;4.47;3.63;;;;;;;30.07;40.09;96545.84;2089819;27;20642;-61
2023/06/26 08:19:20;;;;;;;6.00;4.30;;;;;;;30.15;40.46;96544.84;2079199;28;20952;-61
2023/06/26 08:21:46;;;;;;;7.20;4.13;;;;;;;30.15;40.25;96552.13;2102354;27;20554;-62
2023/06/26 08:22:51;;;;;;;4.83;3.70;;;;;;;29.87;40.05;96544.81;2098951;28;20425;-62
2023/06/26 08:25:26;;;;;;;5.37;3.97;;;;;;;29.87;40.10;96540.25;2109925;27;20568;-61
2023/06/26 08:26:28;;;;;;;5.87;3.90;;;;;;;29.68;39.99;96536.34;2103945;28;20522;-62
2023/06/26 08:29:15;;;;;;;7.43;3.70;;;;;;;29.87;40.03;96531.34;2084924;28;20601;-62
2023/06/26 08:30:16;;;;;;;5.57;4.03;;;;;;;29.45;40.27;96540.03;2082673;28;20517;-62
2023/06/26 08:31:19;;;;;;;6.50;3.70;;;;;;;29.16;40.43;96533.69;2081956;28;20965;-62
2023/06/26 08:32:20;;;;;;;10.50;5.00;;;;;;;29.34;40.05;96537.84;2083480;28;20434;-63
2023/06/26 08:35:06;;;;;;;6.20;3.77;;;;;;;29.28;40.85;96536.75;2091710;27;20554;-61
2023/06/26 08:36:08;;;;;;;6.47;4.43;;;;;;;29.74;40.10;96535.56;2091141;28;20432;-61
2023/06/26 08:37:09;;;;;;;6.47;4.30;;;;;;;29.97;40.45;96540.78;2090210;28;20459;-62
2023/06/26 08:38:11;;;;;;;4.73;3.70;;;;;;;30.02;40.10;96542.88;2086787;28;20446;-62
2023/06/26 08:39:12;;;;;;;4.90;3.93;;;;;;;30.08;40.17;96538.56;2073039;28;20501;-62
2023/06/26 08:40:18;;;;;;;14.20;5.03;;;;;;;30.08;40.07;96539.44;2070797;28;20439;-62
2023/06/26 08:41:20;;;;;;;7.63;3.87;;;;;;;30.06;39.88;96544.16;2075166;28;20434;-62
2023/06/26 08:42:21;;;;;;;8.60;4.40;;;;;;;29.99;39.74;96540.56;2075535;28;20484;-62
2023/06/26 08:43:23;;;;;;;6.97;4.20;;;;;;;29.76;40.34;96546.13;2073463;28;20478;-62
2023/06/26 08:44:24;;;;;;;5.00;3.60;;;;;;;29.79;39.93;96545.75;2073546;28;20490;-62
2023/06/26 08:45:28;;;;;;;5.07;3.47;;;;;;;29.39;39.95;96545.34;2074818;28;20454;-62
2023/06/26 08:46:30;;;;;;;5.73;4.00;;;;;;;29.25;40.63;96537.09;2074196;28;21106;-62
2023/06/26 08:47:35;;;;;;;6.10;3.80;;;;;;;29.27;40.48;96540.44;2074519;28;20435;-62
2023/06/26 08:48:37;;;;;;;5.40;4.17;;;;;;;29.25;40.25;96534.41;2066861;28;20497;-62
2023/06/26 08:49:44;;;;;;;6.03;4.00;;;;;;;29.23;40.55;96532.94;2063801;28;20471;-62
2023/06/26 08:50:49;;;;;;;6.40;4.73;;;;;;;29.24;40.37;96539.97;2066480;28;20818;-62
2023/06/26 08:52:13;;;;;;;5.10;4.13;;;;;;;29.35;40.36;96550.28;2066440;28;20431;-62
2023/06/26 08:53:20;;;;;;;7.27;4.00;;;;;;;29.36;40.41;96541.19;2065684;28;20776;-62
2023/06/26 08:54:28;;;;;;;6.90;4.67;;;;;;;29.32;40.53;96543.41;2065477;28;20440;-61
2023/06/26 08:55:33;;;;;;;5.53;3.90;;;;;;;29.49;40.25;96541.31;2062672;28;20872;-61
2023/06/26 08:56:42;;;;;;;7.70;5.20;;;;;;;29.19;40.33;96547.78;2064750;28;20521;-62
2023/06/26 08:57:43;;;;;;;5.33;4.33;;;;;;;29.33;39.99;96544.22;2064365;28;20420;-61
2023/06/26 08:58:49;;;;;;;6.73;5.20;;;;;;;29.38;40.27;96541.00;2065289;28;20562;-61
2023/06/26 08:59:51;;;;;;;6.50;4.63;;;;;;;29.62;40.05;96547.84;2064773;28;20758;-61
2023/06/26 09:00:55;;;;;;;6.57;4.30;;;;;;;29.93;40.37;96547.56;2059863;28;20436;-62
2023/06/26 09:01:57;;;;;;;5.07;4.40;;;;;;;30.13;39.55;96554.97;2060871;28;20432;-62
2023/06/26 09:03:00;;;;;;;6.83;4.63;;;;;;;30.35;39.05;96553.09;2065355;28;20435;-62
2023/06/26 09:04:02;;;;;;;6.50;4.27;;;;;;;30.41;38.59;96546.91;2065032;28;20486;-62
2023/06/26 09:05:04;;;;;;;8.57;4.83;;;;;;;30.31;38.37;96551.81;2064855;28;20912;-61
2023/06/26 09:06:06;;;;;;;8.37;4.67;;;;;;;30.49;38.59;96550.50;2066321;28;20424;-62
2023/06/26 09:07:07;;;;;;;7.80;4.30;;;;;;;30.57;38.20;96551.19;2064284;28;20455;-61
2023/06/26 09:08:09;;;;;;;5.73;4.10;;;;;;;30.40;38.39;96553.34;2066169;28;20851;-62
2023/06/26 09:09:11;;;;;;;8.30;5.17;;;;;;;30.14;38.95;96556.66;2064664;28;20424;-62
2023/06/26 09:10:13;;;;;;;6.73;4.50;;;;;;;30.24;38.61;96553.63;2066610;28;20428;-62
2023/06/26 09:11:14;;;;;;;7.87;4.33;;;;;;;30.56;38.74;96552.25;2067019;28;20994;-62
2023/06/26 09:12:16;;;;;;;4.83;4.33;;;;;;;30.40;38.46;96550.63;2059870;28;20423;-62
2023/06/26 09:13:18;;;;;;;7.50;4.70;;;;;;;30.36;38.58;96549.38;2059156;28;20536;-62
2023/06/26 09:14:30;;;;;;;6.40;4.40;;;;;;;30.65;38.35;96554.75;2064901;28;20435;-62
2023/06/26 09:15:42;;;;;;;6.37;4.00;;;;;;;30.83;38.01;96559.63;2066912;28;20515;-62
2023/06/26 09:16:43;;;;;;;5.97;4.10;;;;;;;30.73;37.94;96554.63;2066617;28;20885;-62
2023/06/26 09:17:46;;;;;;;7.13;4.00;;;;;;;30.96;37.42;96562.41;2066235;28;20891;-63
2023/06/26 09:18:48;;;;;;;7.30;4.80;;;;;;;31.31;37.29;96561.53;2064297;28;20464;-63
2023/06/26 09:19:51;;;;;;;6.10;4.07;;;;;;;31.24;37.37;96558.81;2067135;28;20428;-62
2023/06/26 09:20:54;;;;;;;7.03;4.67;;;;;;;31.47;37.51;96555.78;2065639;28;20428;-63
2023/06/26 09:21:56;;;;;;;6.67;4.17;;;;;;;31.42;37.12;96560.94;2065462;28;20481;-62
2023/06/26 09:22:59;;;;;;;9.93;4.30;;;;;;;31.40;37.13;96550.38;2066126;28;21113;-62
2023/06/26 09:24:01;;;;;;;6.10;4.73;;;;;;;31.53;36.45;96556.84;2066825;28;20446;-63
2023/06/26 09:25:05;;;;;;;7.63;4.63;;;;;;;31.21;37.27;96561.91;2067192;28;20427;-63
2023/06/26 09:26:06;;;;;;;5.47;4.17;;;;;;;31.03;37.82;96548.94;2066964;28;20437;-63
2023/06/26 09:27:08;;;;;;;5.43;4.20;;;;;;;31.36;37.47;96561.75;2065903;28;20790;-62
2023/06/26 09:28:09;;;;;;;7.03;4.40;;;;;;;31.89;37.12;96550.28;2063788;28;20974;-62
2023/06/26 09:29:13;;;;;;;4.83;4.33;;;;;;;31.76;37.00;96548.41;2062461;28;20924;-62
2023/06/26 09:30:18;;;;;;;5.57;4.40;;;;;;;31.99;36.93;96549.88;2064432;28;20464;-62
2023/06/26 09:31:20;;;;;;;15.83;5.33;;;;;;;31.89;37.08;96553.81;2066131;28;21225;-62
2023/06/26 09:32:40;;;;;;;6.27;4.83;;;;;;;32.03;37.32;96553.84;2066559;28;20439;-62
2023/06/26 09:33:42;;;;;;;7.77;4.13;;;;;;;31.91;36.83;96557.16;2064747;28;20515;-62
2023/06/26 09:34:44;;;;;;;5.57;4.40;;;;;;;31.75;36.77;96547.56;2064446;28;20640;-62
2023/06/26 09:35:47;;;;;;;5.27;4.50;;;;;;;31.84;37.34;96558.19;2066087;28;20427;-62
2023/06/26 09:36:53;;;;;;;7.80;4.73;;;;;;;31.80;37.65;96555.06;2064028;28;20439;-62
2023/06/26 09:37:55;;;;;;;6.73;4.37;;;;;;;32.17;37.78;96560.06;2063551;28;20424;-62
2023/06/26 09:38:56;;;;;;;7.87;5.10;;;;;;;32.11;37.31;96559.00;2066103;28;20825;-62
2023/06/26 09:39:58;;;;;;;6.20;4.60;;;;;;;32.22;36.41;96553.03;2064333;28;20579;-62
2023/06/26 09:40:59;;;;;;;6.60;4.87;;;;;;;32.15;37.07;96554.88;2062604;28;21005;-62
2023/06/26 09:42:01;;;;;;;6.37;4.10;;;;;;;32.69;36.91;96552.16;2062630;28;20441;-62
2023/06/26 09:43:12;;;;;;;6.53;4.30;;;;;;;32.76;35.63;96552.16;2063468;28;20518;-62
2023/06/26 09:44:14;;;;;;;6.10;4.90;;;;;;;32.55;35.71;96543.22;2065325;28;20969;-62
2023/06/26 09:45:20;;;;;;;5.90;4.90;;;;;;;32.79;35.95;96552.56;2065703;28;20428;-62
2023/06/26 09:46:27;;;;;;;9.37;4.93;;;;;;;32.14;37.51;96555.06;2060406;28;20460;-62
2023/06/26 09:47:34;;;;;;;7.73;4.80;;;;;;;32.34;38.24;96564.03;2060831;28;20915;-63
2023/06/26 09:48:35;;;;;;;7.00;5.33;;;;;;;32.08;38.37;96549.47;2059789;28;21215;-62
2023/06/26 09:49:43;;;;;;;5.93;5.13;;;;;;;32.03;38.58;96554.66;2056887;28;20841;-62
2023/06/26 09:50:45;;;;;;;6.73;5.03;;;;;;;32.38;38.48;96553.66;2060731;28;20429;-62
2023/06/26 09:52:07;;;;;;;9.90;5.20;;;;;;;32.71;38.32;96559.00;2060976;28;20454;-62
2023/06/26 09:53:18;;;;;;;6.50;5.30;;;;;;;32.65;38.62;96557.13;2059943;28;20440;-62
2023/06/26 09:54:21;;;;;;;9.27;4.87;;;;;;;32.79;38.46;96557.16;2060294;28;20433;-63
2023/06/26 09:55:23;;;;;;;5.73;5.13;;;;;;;32.49;38.63;96558.41;2061540;28;20459;-62
2023/06/26 09:56:27;;;;;;;8.07;4.40;;;;;;;32.52;39.36;96560.69;2059259;28;20432;-62
2023/06/26 09:57:28;;;;;;;11.60;5.07;;;;;;;32.71;38.82;96552.78;2058859;28;20483;-62
2023/06/26 09:58:31;;;;;;;9.20;5.57;;;;;;;31.73;39.81;96562.28;2057089;28;20538;-63
2023/06/26 09:59:33;;;;;;;12.43;5.63;;;;;;;32.22;40.42;96563.81;2062194;28;20444;-63
2023/06/26 10:00:35;;;;;;;10.90;5.37;;;;;;;32.05;39.80;96557.97;2059966;28;20655;-62
2023/06/26 10:01:40;;;;;;;7.03;5.07;;;;;;;31.88;39.11;96567.50;2061172;28;20516;-62
2023/06/26 10:02:42;;;;;;;8.07;5.87;;;;;;;32.01;38.76;96572.94;2060574;28;20483;-62
2023/06/26 10:03:44;;;;;;;6.10;4.93;;;;;;;31.23;39.78;96567.94;2056370;28;20460;-62
2023/06/26 10:04:45;;;;;;;8.20;5.27;;;;;;;30.35;40.52;96580.03;2058937;28;20428;-62
2023/06/26 10:05:48;;;;;;;6.33;5.03;;;;;;;29.95;41.14;96577.81;2060819;28;20467;-62
2023/06/26 10:06:52;;;;;;;6.40;4.77;;;;;;;30.16;40.81;96572.59;2061093;28;20994;-62
2023/06/26 10:07:54;;;;;;;7.10;5.80;;;;;;;30.11;40.82;96583.97;2061288;28;20460;-63
2023/06/26 10:08:58;;;;;;;7.77;5.47;;;;;;;29.92;41.33;96574.69;2060439;28;20441;-62
2023/06/26 10:10:02;;;;;;;7.90;5.57;;;;;;;29.86;41.87;96578.09;2059102;28;20439;-62
2023/06/26 10:11:03;;;;;;;8.43;5.50;;;;;;;30.29;41.15;96589.69;2060800;28;20932;-62
2023/06/26 10:12:17;;;;;;;9.93;5.20;;;;;;;30.37;40.93;96594.13;2062035;28;20462;-62
2023/06/26 10:13:25;;;;;;;8.90;4.80;;;;;;;30.35;40.54;96582.72;2058988;28;20440;-62
2023/06/26 10:14:30;;;;;;;7.37;5.47;;;;;;;30.29;41.38;96588.88;2061913;28;20567;-62
2023/06/26 10:15:32;;;;;;;6.97;5.30;;;;;;;30.01;41.46;96591.53;2060808;28;20862;-62
2023/06/26 10:16:37;;;;;;;15.90;5.93;;;;;;;29.94;41.58;96588.75;2059458;28;20477;-62
2023/06/26 10:17:41;;;;;;;8.73;5.07;;;;;;;29.68;42.16;96595.53;2060960;28;20432;-62
2023/06/26 10:18:43;;;;;;;11.93;7.37;;;;;;;29.90;41.93;96592.88;2059323;28;20614;-62
2023/06/26 10:19:46;;;;;;;9.03;6.50;;;;;;;29.59;42.38;96602.88;2056943;28;20437;-62
2023/06/26 10:20:50;;;;;;;10.50;6.20;;;;;;;29.53;42.39;96587.50;2058732;28;20431;-63
2023/06/26 10:21:53;;;;;;;9.10;5.67;;;;;;;29.95;42.05;96587.75;2057441;28;20569;-61
2023/06/26 10:22:59;;;;;;;9.13;5.60;;;;;;;29.62;42.83;96586.38;2060497;28;20425;-61
2023/06/26 10:24:03;;;;;;;8.13;5.60;;;;;;;29.06;43.48;96578.81;2060871;28;20424;-62
2023/06/26 10:25:07;;;;;;;10.57;6.10;;;;;;;29.63;42.88;96582.63;2056702;28;20429;-62
2023/06/26 10:26:11;;;;;;;11.13;6.23;;;;;;;29.68;42.70;96595.53;2060767;28;20547;-62
2023/06/26 10:27:21;;;;;;;7.93;6.27;;;;;;;29.97;42.75;96597.28;2056632;28;20468;-60
2023/06/26 10:28:23;;;;;;;9.47;5.50;;;;;;;29.55;42.88;96596.22;2057710;28;20477;-61
2023/06/26 10:29:26;;;;;;;8.73;5.60;;;;;;;29.60;42.80;96595.66;2062079;28;20429;-61
2023/06/26 10:30:33;;;;;;;8.17;5.93;;;;;;;29.24;42.97;96599.13;2058470;28;20436;-62
2023/06/26 10:31:35;;;;;;;14.03;7.87;;;;;;;28.93;43.88;96594.78;2058592;28;20690;-62
2023/06/26 10:32:37;;;;;;;9.20;6.00;;;;;;;28.70;44.73;96605.59;2059987;28;20983;-61
2023/06/26 10:33:39;;;;;;;11.27;6.80;;;;;;;28.22;45.34;96605.88;2058251;28;20476;-61
2023/06/26 10:34:41;;;;;;;15.00;10.00;;;;;;;28.19;45.74;96615.94;2054789;28;20465;-60
2023/06/26 10:35:47;;;;;;;10.43;6.00;;;;;;;28.25;45.97;96605.50;2053525;28;20488;-62
2023/06/26 10:37:02;;;;;;;12.00;6.37;;;;;;;28.28;45.41;96605.16;2060420;28;20443;-62
2023/06/26 10:38:04;;;;;;;13.23;6.40;;;;;;;28.45;45.38;96614.72;2059485;28;20482;-62
2023/06/26 10:39:06;;;;;;;11.07;6.35;;;;;;;28.98;45.05;96611.19;2060347;28;20503;-62
2023/06/26 10:40:08;;;;;;;11.07;5.88;;;;;;;28.48;45.30;96611.69;2059685;28;20191;-62
2023/06/26 10:41:13;;;;;;;11.37;6.30;;;;;;;28.48;45.78;96611.69;2060355;28;20199;-62
2023/06/26 10:42:15;;;;;;;10.07;7.07;;;;;;;28.43;45.88;96619.44;2058029;28;20444;-62
2023/06/26 10:43:18;;;;;;;10.65;5.60;;;;;;;28.25;46.31;96609.03;2059816;28;20234;-62
2023/06/26 10:44:20;;;;;;;12.82;5.80;;;;;;;28.07;47.16;96616.56;2044543;29;20195;-62
2023/06/26 10:45:27;;;;;;;15.85;6.45;;;;;;;28.18;47.28;96616.13;2044356;28;20207;-62
2023/06/26 10:46:33;;;;;;;10.55;6.63;;;;;;;28.04;46.94;96617.75;2059286;28;20744;-62
2023/06/26 10:47:38;;;;;;;10.40;5.90;;;;;;;28.11;47.40;96617.88;2059625;28;20340;-62
2023/06/26 10:48:59;;;;;;;8.00;5.68;;;;;;;28.29;46.96;96618.38;2058783;28;20484;-62
2023/06/26 10:50:20;;;;;;;11.95;6.50;;;;;;;28.30;46.59;96620.06;2059198;28;20638;-62
2023/06/26 10:51:38;;;;;;;9.02;6.20;;;;;;;28.49;46.88;96629.47;2060164;28;20608;-62
2023/06/26 10:52:39;;;;;;;8.18;6.20;;;;;;;28.63;46.27;96626.97;2062854;28;20198;-62
2023/06/26 10:53:43;;;;;;;7.88;5.95;;;;;;;29.11;46.17;96616.72;2063292;28;20809;-62
2023/06/26 10:54:45;;;;;;;10.25;6.80;;;;;;;28.77;45.77;96619.97;2060453;28;20218;-62
2023/06/26 10:55:51;;;;;;;8.70;6.30;;;;;;;29.23;45.58;96619.81;2060165;28;20210;-62
2023/06/26 10:56:56;;;;;;;8.27;5.97;;;;;;;28.52;46.35;96620.22;2059279;28;20198;-62
2023/06/26 10:57:58;;;;;;;8.40;6.10;;;;;;;28.24;47.03;96628.00;2058554;28;20210;-62
2023/06/26 10:59:13;;;;;;;8.23;5.32;;;;;;;27.97;47.73;96614.94;2060408;28;20198;-62
2023/06/26 11:00:16;;;;;;;9.45;6.15;;;;;;;27.94;47.50;96614.44;2074790;28;20247;-62
2023/06/26 11:01:22;;;;;;;8.75;5.90;;;;;;;27.78;47.93;96612.69;2075406;28;20675;-62
2023/06/26 11:02:25;;;;;;;11.88;6.57;;;;;;;27.71;48.37;96617.94;2060821;28;20209;-62
2023/06/26 11:03:30;;;;;;;15.52;6.82;;;;;;;28.07;48.21;96619.25;2059019;28;20261;-62
2023/06/26 11:04:52;;;;;;;7.97;6.07;;;;;;;28.39;47.57;96611.94;2056533;28;20526;-62
2023/06/26 11:06:14;;;;;;;12.52;5.70;;;;;;;28.32;47.26;96617.19;2061426;28;20784;-62
2023/06/26 11:07:26;;;;;;;16.42;5.65;;;;;;;28.14;47.66;96615.66;2074802;28;20202;-62
2023/06/26 11:08:53;;;;;;;9.93;6.43;;;;;;;28.30;47.40;96616.53;2071113;28;20304;-61
2023/06/26 11:10:01;;;;;;;9.65;5.90;;;;;;;28.73;46.81;96616.81;2062178;28;20226;-62
2023/06/26 11:11:02;;;;;;;15.07;6.90;;;;;;;28.67;46.47;96609.50;2060435;28;20203;-62
2023/06/26 11:12:06;;;;;;;12.50;6.32;;;;;;;28.85;46.00;96611.84;2061749;28;20238;-61
2023/06/26 11:13:10;;;;;;;10.63;6.25;;;;;;;28.96;46.50;96607.84;2055844;28;20218;-62
2023/06/26 11:14:12;;;;;;;11.13;5.57;;;;;;;29.60;45.76;96609.09;2057738;28;20199;-62
2023/06/26 11:15:15;;;;;;;11.75;5.75;;;;;;;30.09;45.07;96619.16;2059697;28;20198;-62
2023/06/26 11:16:17;;;;;;;9.65;4.97;;;;;;;30.04;44.57;96616.22;2057879;28;20219;-62
2023/06/26 11:17:19;;;;;;;9.07;4.95;;;;;;;30.28;44.11;96612.28;2059543;28;20337;-62
2023/06/26 11:18:20;;;;;;;7.95;6.05;;;;;;;30.57;44.30;96618.53;2057728;28;20752;-62
2023/06/26 11:19:22;;;;;;;8.30;6.57;;;;;;;30.17;44.07;96620.03;2056317;28;20293;-62
2023/06/26 11:20:23;;;;;;;9.23;6.37;;;;;;;30.18;43.88;96616.31;2057509;28;20195;-62
2023/06/26 11:21:25;;;;;;;8.80;5.20;;;;;;;30.39;43.67;96624.38;2060151;28;20431;-62
2023/06/26 11:22:27;;;;;;;9.83;6.07;;;;;;;30.39;43.98;96621.69;2060353;28;20442;-62
2023/06/26 11:23:29;;;;;;;8.13;5.77;;;;;;;29.92;44.33;96623.13;2055835;28;20468;-62
2023/06/26 11:24:31;;;;;;;9.33;5.17;;;;;;;30.00;44.43;96622.16;2056563;28;20429;-62
2023/06/26 11:25:36;;;;;;;12.93;5.43;;;;;;;29.68;45.18;96618.91;2058807;28;20449;-62
2023/06/26 11:26:42;;;;;;;9.20;5.70;;;;;;;29.43;45.27;96619.22;2058065;28;20524;-62
2023/06/26 11:27:44;;;;;;;12.90;5.57;;;;;;;29.47;45.61;96621.38;2056257;28;20464;-62
2023/06/26 11:28:56;;;;;;;7.53;5.00;;;;;;;29.60;45.31;96625.25;2056267;28;20461;-62
2023/06/26 11:29:58;;;;;;;12.27;5.77;;;;;;;30.05;44.97;96628.63;2058141;28;20444;-62
2023/06/26 11:30:59;;;;;;;7.93;5.20;;;;;;;30.44;44.96;96630.00;2058594;28;20459;-62
2023/06/26 11:32:05;;;;;;;6.90;5.37;;;;;;;30.30;44.62;96631.75;2060329;28;20944;-62
2023/06/26 11:33:09;;;;;;;7.43;5.40;;;;;;;30.10;44.91;96634.25;2058852;28;20432;-63
2023/06/26 11:34:13;;;;;;;9.63;5.40;;;;;;;29.65;46.03;96631.69;2060255;28;20512;-62
2023/06/26 11:35:30;;;;;;;8.53;5.50;;;;;;;29.07;46.83;96646.88;2059466;28;20428;-63
2023/06/26 11:36:32;;;;;;;10.30;5.20;;;;;;;28.94;47.48;96636.78;2058095;28;20488;-62
2023/06/26 11:37:33;;;;;;;6.70;5.30;;;;;;;28.78;48.08;96638.59;2059471;28;21025;-62
2023/06/26 11:38:38;;;;;;;11.40;5.57;;;;;;;28.49;48.49;96640.19;2058468;28;20592;-62
2023/06/26 11:39:39;;;;;;;7.93;5.30;;;;;;;28.64;48.22;96636.69;2056227;28;20783;-62
2023/06/26 11:40:41;;;;;;;9.10;5.37;;;;;;;28.52;48.77;96645.19;2058019;28;20576;-62
2023/06/26 11:41:45;;;;;;;9.97;6.30;;;;;;;27.93;49.35;96613.59;2059230;28;20437;-62
2023/06/26 11:42:47;;;;;;;9.67;6.27;;;;;;;28.19;49.25;96647.34;2058111;28;20443;-62
2023/06/26 11:43:49;;;;;;;9.13;6.20;;;;;;;28.49;49.24;96645.56;2056839;28;20456;-62
2023/06/26 11:44:51;;;;;;;8.57;5.47;;;;;;;28.78;48.37;96638.59;2059441;28;20787;-62
2023/06/26 11:45:53;;;;;;;10.50;5.90;;;;;;;28.99;47.90;96647.81;2060034;28;21105;-62
2023/06/26 11:46:55;;;;;;;11.50;5.82;;;;;;;29.22;47.60;96644.19;2060625;28;20467;-62
2023/06/26 11:47:57;;;;;;;9.38;5.57;;;;;;;29.49;47.58;96642.69;2058199;28;20211;-62
2023/06/26 11:48:59;;;;;;;8.40;6.03;;;;;;;29.66;47.28;96643.28;2061298;28;20209;-62
2023/06/26 11:50:04;;;;;;;9.50;4.63;;;;;;;29.86;46.46;96643.50;2062689;28;20578;-62
2023/06/26 11:51:06;;;;;;;9.17;5.03;;;;;;;29.86;46.35;96648.06;2060225;28;20432;-62
2023/06/26 11:52:07;;;;;;;10.20;5.67;;;;;;;29.83;46.36;96645.75;2060487;28;20485;-62
2023/06/26 11:53:09;;;;;;;13.37;5.83;;;;;;;29.59;45.35;96653.16;2060327;28;20439;-62
2023/06/26 11:54:12;;;;;;;7.93;6.10;;;;;;;29.91;45.41;96645.66;2059218;28;20741;-62
2023/06/26 11:55:14;;;;;;;7.97;5.60;;;;;;;29.56;45.93;96640.91;2057318;28;20789;-62
2023/06/26 11:56:17;;;;;;;8.47;5.60;;;;;;;29.15;46.77;96642.25;2058142;28;20464;-62
2023/06/26 11:57:19;;;;;;;10.73;5.70;;;;;;;29.61;46.73;96637.63;2058253;28;20474;-62
2023/06/26 11:58:20;;;;;;;8.20;6.17;;;;;;;29.56;46.20;96646.28;2057835;28;20505;-62
2023/06/26 11:59:22;;;;;;;10.83;5.90;;;;;;;29.61;46.75;96643.88;2060043;28;20516;-62
2023/06/26 12:00:24;;;;;;;11.27;5.10;;;;;;;29.87;46.68;96642.50;2059833;28;20425;-62
2023/06/26 12:01:26;;;;;;;6.57;4.80;;;;;;;29.88;45.79;96628.06;2060292;28;20428;-62
2023/06/26 12:02:28;;;;;;;11.03;5.90;;;;;;;29.75;46.23;96650.25;2059677;28;20486;-62
2023/06/26 12:03:32;;;;;;;16.30;6.60;;;;;;;29.41;46.25;96642.81;2058407;28;20468;-62
2023/06/26 12:04:37;;;;;;;6.57;5.47;;;;;;;29.71;46.00;96638.19;2055924;28;20491;-62
2023/06/26 12:05:39;;;;;;;7.93;6.00;;;;;;;29.91;46.19;96642.97;2056770;28;20467;-62
2023/06/26 12:06:46;;;;;;;7.47;5.47;;;;;;;30.17;45.54;96628.09;2060040;28;21238;-62
2023/06/26 12:07:49;;;;;;;9.63;5.97;;;;;;;30.15;44.83;96636.38;2059222;28;20462;-62
2023/06/26 12:08:50;;;;;;;12.40;6.47;;;;;;;29.42;46.01;96629.16;2059688;28;20461;-62
2023/06/26 12:09:53;;;;;;;8.63;5.77;;;;;;;29.33;46.30;96632.97;2057215;28;20483;-62
2023/06/26 12:10:55;;;;;;;9.47;5.23;;;;;;;29.64;45.83;96639.97;2058586;28;20450;-62
2023/06/26 12:11:58;;;;;;;8.57;6.23;;;;;;;30.13;44.89;96643.81;2058730;28;20858;-61
2023/06/26 12:13:01;;;;;;;9.43;6.33;;;;;;;29.85;45.72;96636.44;2063113;28;20514;-62
2023/06/26 12:14:03;;;;;;;12.87;9.93;;;;;;;29.76;45.06;96641.16;2063371;28;20428;-62
2023/06/26 12:15:07;;;;;;;13.10;6.20;;;;;;;29.62;45.39;96634.78;2055943;28;20421;-60
2023/06/26 12:16:08;;;;;;;11.02;5.43;;;;;;;29.40;45.72;96633.88;2056263;28;20429;-60
2023/06/26 12:17:13;;;;;;;7.20;5.40;;;;;;;29.17;46.50;96636.66;2060656;28;20213;-60
2023/06/26 12:18:14;;;;;;;10.70;4.97;;;;;;;28.79;46.52;96634.88;2059780;28;20963;-61
2023/06/26 12:19:16;;;;;;;7.27;5.10;;;;;;;28.56;46.91;96636.78;2060550;28;20991;-60
2023/06/26 12:20:22;;;;;;;13.55;5.60;;;;;;;29.04;46.47;96640.00;2059705;28;20491;-60
2023/06/26 12:21:44;;;;;;;6.93;5.00;;;;;;;29.47;45.74;96637.50;2058806;28;20300;-60
2023/06/26 12:22:47;;;;;;;11.45;6.30;;;;;;;29.45;45.94;96634.16;2059600;28;20433;-60
2023/06/26 12:23:49;;;;;;;8.48;5.45;;;;;;;29.63;45.71;96633.75;2057655;28;20226;-61
2023/06/26 12:24:50;;;;;;;9.52;6.40;;;;;;;29.00;46.65;96641.38;2058572;28;20203;-60
2023/06/26 12:25:53;;;;;;;13.95;6.25;;;;;;;28.91;47.21;96639.81;2059588;28;20325;-60
2023/06/26 12:26:56;;;;;;;9.20;5.70;;;;;;;28.63;46.92;96645.75;2059026;28;20202;-60
2023/06/26 12:27:58;;;;;;;9.70;5.70;;;;;;;28.85;46.55;96641.41;2060781;28;20233;-60
2023/06/26 12:29:07;;;;;;;9.02;6.20;;;;;;;28.74;46.75;96645.34;2058627;28;20272;-60
2023/06/26 12:30:08;;;;;;;10.00;5.63;;;;;;;29.12;46.52;96647.16;2058666;28;20581;-60
2023/06/26 12:31:17;;;;;;;8.82;5.35;;;;;;;29.04;45.48;96653.44;2055792;28;20203;-60
2023/06/26 12:32:19;;;;;;;9.07;5.32;;;;;;;29.21;45.46;96643.34;2058259;28;20265;-60
2023/06/26 12:33:21;;;;;;;10.93;5.57;;;;;;;28.76;45.74;96650.53;2058696;28;20226;-61
2023/06/26 12:34:28;;;;;;;6.97;5.28;;;;;;;28.58;45.92;96653.53;2055458;28;20642;-60
2023/06/26 12:35:33;;;;;;;9.27;5.50;;;;;;;28.63;46.06;96652.00;2057074;28;20207;-60
2023/06/26 12:36:42;;;;;;;10.55;5.70;;;;;;;29.09;45.44;96640.28;2057750;28;20206;-60
2023/06/26 12:37:45;;;;;;;11.38;6.22;;;;;;;29.49;45.40;96635.44;2059292;28;20286;-60
2023/06/26 12:38:48;;;;;;;9.65;5.90;;;;;;;29.49;45.15;96640.81;2058973;28;20234;-60
2023/06/26 12:39:52;;;;;;;8.23;4.68;;;;;;;29.48;45.38;96644.56;2059383;28;20207;-60
2023/06/26 12:40:56;;;;;;;8.55;5.00;;;;;;;29.34;45.26;96648.06;2057999;28;20281;-60
2023/06/26 12:42:01;;;;;;;7.87;5.37;;;;;;;29.01;46.09;96643.06;2058811;28;20253;-60
2023/06/26 12:43:11;;;;;;;12.02;4.82;;;;;;;29.22;45.77;96649.56;2058512;28;20448;-60
2023/06/26 12:44:25;;;;;;;7.10;4.80;;;;;;;29.12;45.88;96644.47;2058358;28;20705;-60
2023/06/26 12:45:27;;;;;;;15.10;5.63;;;;;;;29.26;45.88;96648.97;2059074;28;20428;-60
2023/06/26 12:46:37;;;;;;;14.82;6.03;;;;;;;28.82;45.90;96641.75;2055922;28;20199;-60
2023/06/26 12:47:41;;;;;;;12.15;4.88;;;;;;;28.90;45.88;96643.50;2057029;28;20210;-60
2023/06/26 12:48:46;;;;;;;9.02;5.15;;;;;;;28.98;45.88;96641.56;2057203;28;20222;-60
2023/06/26 12:49:51;;;;;;;9.93;5.60;;;;;;;29.49;44.59;96656.13;2055800;28;20226;-60
2023/06/26 12:50:53;;;;;;;14.38;5.72;;;;;;;29.93;44.06;96651.72;2056974;28;20203;-60
2023/06/26 12:51:54;;;;;;;7.03;4.53;;;;;;;30.14;43.39;96653.56;2058899;28;20221;-61
2023/06/26 12:52:56;;;;;;;7.03;5.20;;;;;;;30.03;43.05;96654.91;2057979;28;20289;-61
2023/06/26 12:53:57;;;;;;;8.70;5.63;;;;;;;29.71;43.87;96657.03;2058197;28;20479;-60
2023/06/26 12:54:59;;;;;;;9.60;4.38;;;;;;;29.03;44.65;96654.47;2059192;28;20282;-60
2023/06/26 12:56:00;;;;;;;8.13;4.90;;;;;;;28.81;44.65;96640.94;2058576;28;20210;-60
2023/06/26 12:57:05;;;;;;;8.43;5.00;;;;;;;28.52;45.00;96637.13;2057805;28;21121;-60
2023/06/26 12:58:07;;;;;;;6.60;4.63;;;;;;;28.93;44.91;96641.28;2058082;28;20684;-60
2023/06/26 12:59:10;;;;;;;8.60;5.30;;;;;;;29.13;44.24;96644.25;2059025;28;20195;-60
2023/06/26 13:00:12;;;;;;;7.70;4.97;;;;;;;29.43;44.40;96644.28;2058879;28;20491;-60
2023/06/26 13:01:14;;;;;;;10.80;4.67;;;;;;;29.95;42.71;96641.56;2055785;28;20250;-60
2023/06/26 13:02:15;;;;;;;14.23;5.47;;;;;;;30.35;42.13;96633.88;2056023;28;20464;-60
2023/06/26 13:03:17;;;;;;;6.87;5.73;;;;;;;30.04;42.23;96642.28;2055445;28;20464;-60
2023/06/26 13:04:19;;;;;;;14.13;10.23;;;;;;;30.08;41.74;96639.03;2056437;28;20433;-60
2023/06/26 13:05:20;;;;;;;9.43;5.77;;;;;;;30.15;41.65;96638.25;2055891;28;20472;-60
2023/06/26 13:06:22;;;;;;;7.87;5.40;;;;;;;30.19;41.15;96639.53;2059151;28;20436;-61
2023/06/26 13:07:25;;;;;;;12.00;4.80;;;;;;;29.93;41.45;96641.75;2059794;28;20428;-62
2023/06/26 13:08:28;;;;;;;9.40;4.90;;;;;;;29.59;41.92;96628.94;2059080;28;20522;-61
2023/06/26 13:09:33;;;;;;;6.97;4.32;;;;;;;29.49;41.56;96638.13;2055852;28;20721;-61
2023/06/26 13:10:35;;;;;;;7.90;4.90;;;;;;;29.52;41.75;96628.84;2057520;28;20199;-61
2023/06/26 13:11:37;;;;;;;13.73;4.43;;;;;;;29.55;41.55;96631.19;2058499;28;21062;-61
2023/06/26 13:12:39;;;;;;;7.63;4.40;;;;;;;29.34;41.76;96642.69;2061011;28;20935;-61
2023/06/26 13:13:40;;;;;;;9.47;5.00;;;;;;;29.44;42.34;96637.03;2057532;28;20472;-61
2023/06/26 13:14:42;;;;;;;9.60;4.80;;;;;;;29.49;41.87;96634.63;2059011;28;20484;-61
2023/06/26 13:15:43;;;;;;;9.75;4.53;;;;;;;29.43;41.75;96636.22;2055794;28;20492;-61
2023/06/26 13:16:45;;;;;;;10.52;4.72;;;;;;;29.65;41.68;96638.94;2057530;28;20203;-61
2023/06/26 13:17:46;;;;;;;5.63;3.87;;;;;;;29.34;41.19;96647.25;2059071;28;20199;-62